Danville, VA (24540)

9:42 PM EDT on May 25, 2017 (GMT -0400)
Brentwood Community | | Change Station
Active Advisory: Flood Warning Active Notice: Public Information Statement

Elev 548 ft 36.62 °N, 79.40 °W | Updated 5 seconds ago

Mostly Cloudy
Mostly Cloudy
58.3 °F
Feels Like 58.3 °F
N
0.0
Wind Variable Wind from East

Today
High -- | Low -- °F
--% Chance of Precip.
Yesterday
High -- | Low -- °F
Precip. -- in
Pressure 29.61 in
Visibility 10.0 miles
Clouds Scattered Clouds 9000 ft
Mostly Cloudy 11000 ft
Dew Point 55 °F
Humidity 89%
Rainfall 0.27 in
Snow Depth Not available.
6:03 AM 8:26 PM
New Moon, 0% visible
METAR KDAN 260053Z AUTO 24005KT 10SM SCT090 BKN110 15/13 A2963 RMK AO2 SLP026 T01500133
Pressure 29.61 in
Visibility 10.0 miles
Clouds Scattered Clouds 9000 ft
Mostly Cloudy 11000 ft
Dew Point 55 °F
Humidity 89%
Rainfall 0.27 in
Snow Depth Not available.
6:03 AM 8:26 PM
New Moon, 0% visible
METAR KDAN 260053Z AUTO 24005KT 10SM SCT090 BKN110 15/13 A2963 RMK AO2 SLP026 T01500133

Get Your Daily Forecast Email!

Thanks for signing up!

Be on the lookout for a verification email in your inbox.

You'll start receiving severe weather alerts in your inbox..

×

10-Day Weather Forecast

Almanac

Astronomy

May. 25, 2017 Rise Set
Actual Time
Civil Twilight
Nautical Twilight
Astronomical Twilight
Moon
Length of Visible Light
Length of Day
Tomorrow will be .
, % of the Moon is Illuminated

Today's Extremes

State Highs State Lows

Community

WunderPhotos

Category 6

Welcome to Category 6. This is the collective home for Weather Underground's featured writeups by Dr. Jeff Masters (right), Bob Henson (left), Chris Burt, and other regular contributors.

Nearby

Air Quality

  Air Quality AQ Index Pollutant
Not available.

Snow Depth

Station Depth Elevation

Earthquake Activity

City Distance Mag. Time & Date
Minimum magnitude displayed is 2.5.

Coastal Water Temperatures

Place Temperature

Stations

Nearby Weather Stations

Station Location Temp. Windchill Dew Point Humidity Wind Precip. Elev Updated Type
                   

Watches & Warnings

Flood Warning
Issued: 9:33 PM EDT May. 25, 2017 – National Weather Service

The Flood Warning continues for
the Dan River near Danville.
* From tonight until noon Friday
* at 08pm Thursday the stage was 16.9 feet.

* Flood stage is 17.0 feet.
* Forecast to rise above flood stage tonight... cresting at around
17.8 feet before receding back below flood stage Friday morning.

* Flood history... this crest compares to a previous crest of 17.3
feet on Feb 17 2016.


Lat... Lon 3649 7966 3660 7963 3664 7941 3663 7920
          3648 7923 3650 7949